createdAt,value
2023-01-11T00:01:40.166Z,99942.00
2023-01-11T00:04:07.106Z,99949.44
2023-01-11T00:06:34.055Z,99940.00
2023-01-11T00:09:01.007Z,99940.31
2023-01-11T00:11:28.107Z,99940.81
2023-01-11T00:13:55.013Z,99945.31
2023-01-11T00:16:21.972Z,99937.47
2023-01-11T00:18:48.921Z,99940.00
2023-01-11T00:21:15.916Z,99944.97
2023-01-11T00:23:42.848Z,99931.53
2023-01-11T00:26:13.041Z,99944.47
2023-01-11T00:28:40.102Z,99940.66
2023-01-11T00:31:07.124Z,99930.88
2023-01-11T00:33:34.437Z,99923.75
2023-01-11T00:36:01.543Z,99920.09
2023-01-11T00:38:43.628Z,99912.16
2023-01-11T00:41:33.183Z,99908.53
2023-01-11T00:44:19.215Z,99895.94
2023-01-11T00:47:04.525Z,99883.50
2023-01-11T00:49:31.585Z,99877.38
2023-01-11T00:51:58.552Z,99880.69
2023-01-11T00:54:25.544Z,99882.34
2023-01-11T00:56:52.521Z,99861.13
2023-01-11T00:59:20.093Z,99859.16
2023-01-11T01:01:47.008Z,99853.50
2023-01-11T01:04:14.083Z,99857.63
2023-01-11T01:06:41.032Z,99852.84
2023-01-11T01:09:08.253Z,99855.16
2023-01-11T01:11:35.163Z,99854.84
2023-01-11T01:14:20.491Z,99850.88
2023-01-11T01:16:47.969Z,99840.72
2023-01-11T01:19:15.627Z,99836.06
2023-01-11T01:21:42.592Z,99840.88
2023-01-11T01:24:09.784Z,99824.78
2023-01-11T01:26:36.774Z,99835.25
2023-01-11T01:29:04.310Z,99840.41
2023-01-11T01:31:31.406Z,99844.88
2023-01-11T01:33:58.432Z,99846.53
2023-01-11T01:36:25.455Z,99842.88
2023-01-11T01:38:52.354Z,99833.09
2023-01-11T01:41:19.530Z,99833.09
2023-01-11T01:43:59.620Z,99842.88
2023-01-11T01:46:33.356Z,99841.69
2023-01-11T01:49:12.087Z,99841.69
2023-01-11T01:51:49.015Z,99831.91
2023-01-11T01:54:24.908Z,99845.03
2023-01-11T01:57:01.838Z,99842.19
2023-01-11T01:59:31.055Z,99837.72
2023-01-11T02:01:58.333Z,99838.53
2023-01-11T02:04:41.994Z,99846.50
2023-01-11T02:07:19.371Z,99845.50
2023-01-11T02:10:12.419Z,99845.19
2023-01-11T02:12:59.356Z,99846.84
2023-01-11T02:15:26.998Z,99842.19
2023-01-11T02:17:53.896Z,99841.19
2023-01-11T02:20:50.638Z,99851.47
2023-01-11T02:24:18.418Z,99851.13
2023-01-11T02:27:29.872Z,99850.78
2023-01-11T02:30:26.431Z,99845.47
2023-01-11T02:33:18.520Z,99847.13
2023-01-11T02:36:15.148Z,99839.81
2023-01-11T02:38:57.655Z,99828.38
2023-01-11T02:42:09.230Z,99825.38
2023-01-11T02:45:03.743Z,99814.59
2023-01-11T02:47:59.955Z,99817.91
2023-01-11T02:50:38.613Z,99804.28
2023-01-11T02:53:23.636Z,99801.28
2023-01-11T02:55:57.121Z,99800.28
2023-01-11T02:58:28.154Z,99798.97
2023-01-11T03:00:55.872Z,99798.78
2023-01-11T03:03:27.673Z,99794.94
2023-01-11T03:06:02.024Z,99800.09
2023-01-11T03:09:14.331Z,99797.91
2023-01-11T03:12:25.543Z,99793.25
2023-01-11T03:15:24.396Z,99784.94
2023-01-11T03:18:21.050Z,99791.91
2023-01-11T03:20:58.643Z,99771.97
2023-01-11T03:23:54.322Z,99776.09
2023-01-11T03:26:52.641Z,99776.56
2023-01-11T03:30:13.254Z,99778.72
2023-01-11T03:32:48.583Z,99776.53
2023-01-11T03:35:45.160Z,99776.38
2023-01-11T03:38:44.076Z,99777.69
2023-01-11T03:41:20.302Z,99776.50
2023-01-11T03:43:51.588Z,99772.81
2023-01-11T03:46:29.520Z,99760.84
2023-01-11T03:49:04.226Z,99765.81
2023-01-11T03:51:38.565Z,99759.31
2023-01-11T03:54:08.809Z,99765.09
2023-01-11T03:57:05.894Z,99759.25
2023-01-11T03:59:34.508Z,99759.72
2023-01-11T04:02:02.281Z,99750.59
2023-01-11T04:04:29.706Z,99737.75
2023-01-11T04:06:56.788Z,99739.06
2023-01-11T04:09:23.760Z,99736.22
2023-01-11T04:11:50.714Z,99742.66
2023-01-11T04:14:17.618Z,99735.50
2023-01-11T04:16:44.533Z,99741.25
2023-01-11T04:19:11.452Z,99737.44
2023-01-11T04:21:38.367Z,99742.56
2023-01-11T04:24:05.663Z,99727.91
2023-01-11T04:26:33.089Z,99727.09
2023-01-11T04:29:00.055Z,99720.59
2023-01-11T04:31:27.115Z,99720.22
2023-01-11T04:33:54.056Z,99712.06
2023-01-11T04:36:21.046Z,99712.06
2023-01-11T04:38:47.997Z,99701.25
2023-01-11T04:41:33.675Z,99704.72
2023-01-11T04:44:00.587Z,99702.53
2023-01-11T04:46:27.519Z,99714.16
2023-01-11T04:48:56.244Z,99705.22
2023-01-11T04:51:23.156Z,99710.53
2023-01-11T04:53:50.116Z,99710.16
2023-01-11T04:56:17.614Z,99709.97
2023-01-11T04:58:45.074Z,99710.63
2023-01-11T05:01:18.395Z,99706.75
2023-01-11T05:03:46.280Z,99703.91
2023-01-11T05:06:14.975Z,99705.56
2023-01-11T05:08:46.420Z,99701.72
2023-01-11T05:11:13.372Z,99689.44
2023-01-11T05:13:43.492Z,99692.75
2023-01-11T05:16:12.350Z,99682.91
2023-01-11T05:18:45.111Z,99680.06
2023-01-11T05:21:14.425Z,99683.41
2023-01-11T05:23:42.427Z,99669.09
2023-01-11T05:26:23.212Z,99669.09
2023-01-11T05:28:51.989Z,99667.09
2023-01-11T05:31:19.264Z,99667.09
2023-01-11T05:33:46.675Z,99669.56
2023-01-11T05:36:17.511Z,99667.53
2023-01-11T05:38:50.079Z,99663.88
2023-01-11T05:41:19.204Z,99663.69
2023-01-11T05:44:07.055Z,99659.81
2023-01-11T05:46:36.782Z,99652.66
2023-01-11T05:49:05.325Z,99647.16
2023-01-11T05:51:33.499Z,99636.34
2023-01-11T05:54:03.152Z,99636.16
2023-01-11T05:56:30.214Z,99640.25
2023-01-11T05:58:57.254Z,99642.56
2023-01-11T06:01:25.233Z,99642.38
2023-01-11T06:03:52.559Z,99638.69
2023-01-11T06:06:20.565Z,99634.84
2023-01-11T06:08:47.655Z,99635.50
2023-01-11T06:11:15.246Z,99638.78
2023-01-11T06:13:42.476Z,99636.94
2023-01-11T06:16:14.052Z,99635.09
2023-01-11T06:18:44.140Z,99634.09
2023-01-11T06:21:12.982Z,99631.25
2023-01-11T06:23:44.119Z,99630.25
2023-01-11T06:26:17.055Z,99627.59
2023-01-11T06:28:44.492Z,99629.22
2023-01-11T06:31:12.202Z,99628.22
2023-01-11T06:33:39.710Z,99622.06
2023-01-11T06:36:10.874Z,99625.34
2023-01-11T06:38:38.537Z,99610.19
2023-01-11T06:41:08.348Z,99609.84
2023-01-11T06:43:37.936Z,99618.47
2023-01-11T06:46:05.589Z,99612.94
2023-01-11T06:48:32.613Z,99605.63
2023-01-11T06:50:59.989Z,99604.41
2023-01-11T06:53:29.079Z,99595.59
2023-01-11T06:55:58.806Z,99605.84
2023-01-11T06:58:26.670Z,99595.66
2023-01-11T07:00:56.913Z,99592.78
2023-01-11T07:03:25.798Z,99587.28
2023-01-11T07:05:54.166Z,99593.25
2023-01-11T07:08:21.236Z,99592.03
2023-01-11T07:10:48.357Z,99591.84
2023-01-11T07:13:17.189Z,99594.97
2023-01-11T07:15:46.431Z,99593.75
2023-01-11T07:18:13.379Z,99582.94
2023-01-11T07:20:40.940Z,99580.06
2023-01-11T07:23:08.060Z,99590.31
2023-01-11T07:25:35.278Z,99579.47
2023-01-11T07:28:06.141Z,99576.44
2023-01-11T07:30:51.896Z,99582.41
2023-01-11T07:33:23.444Z,99586.69
2023-01-11T07:35:50.401Z,99582.03
2023-01-11T07:38:17.395Z,99589.44
2023-01-11T07:40:44.343Z,99588.44
2023-01-11T07:43:18.835Z,99584.56
2023-01-11T07:45:49.283Z,99570.22
2023-01-11T07:48:24.975Z,99579.03
2023-01-11T07:50:53.093Z,99578.81
2023-01-11T07:53:20.302Z,99574.16
2023-01-11T07:55:47.487Z,99569.84
2023-01-11T07:58:15.284Z,99576.81
2023-01-11T08:00:42.384Z,99580.94
2023-01-11T08:03:09.837Z,99588.72
2023-01-11T08:05:37.107Z,99584.22
2023-01-11T08:08:05.193Z,99589.75
2023-01-11T08:10:32.261Z,99584.22
2023-01-11T08:13:18.227Z,99596.50
2023-01-11T08:15:45.323Z,99596.50
2023-01-11T08:18:12.707Z,99595.53
2023-01-11T08:20:40.264Z,99606.34
2023-01-11T08:23:09.975Z,99602.69
2023-01-11T08:25:37.880Z,99598.81
2023-01-11T08:28:06.949Z,99601.69
2023-01-11T08:30:35.162Z,99595.31
2023-01-11T08:33:03.009Z,99590.00
2023-01-11T08:35:31.728Z,99602.28
2023-01-11T08:37:58.744Z,99601.91
2023-01-11T08:40:25.778Z,99588.56
2023-01-11T08:42:59.024Z,99595.75
2023-01-11T08:45:26.711Z,99582.25
2023-01-11T08:47:54.560Z,99582.25
2023-01-11T08:50:22.641Z,99581.22
2023-01-11T08:52:51.550Z,99579.38
2023-01-11T08:55:19.724Z,99580.22
2023-01-11T08:57:46.854Z,99591.69
2023-01-11T09:00:14.771Z,99585.53
2023-01-11T09:02:41.847Z,99579.81
2023-01-11T09:05:09.434Z,99584.78
2023-01-11T09:07:36.352Z,99593.38
2023-01-11T09:10:03.942Z,99596.69
2023-01-11T09:12:32.457Z,99586.47
2023-01-11T09:14:59.658Z,99590.78
2023-01-11T09:17:26.766Z,99598.41
2023-01-11T09:19:53.674Z,99596.56
2023-01-11T09:22:20.603Z,99593.69
2023-01-11T09:24:47.567Z,99590.00
2023-01-11T09:27:14.649Z,99597.63
2023-01-11T09:29:41.604Z,99591.25
2023-01-11T09:32:08.507Z,99596.41
2023-01-11T09:34:35.859Z,99594.75
2023-01-11T09:37:06.613Z,99606.03
2023-01-11T09:39:34.863Z,99598.03
2023-01-11T09:42:36.617Z,99615.69
2023-01-11T09:45:23.306Z,99608.34
2023-01-11T09:48:11.571Z,99615.31
2023-01-11T09:50:45.447Z,99613.25
2023-01-11T09:53:28.075Z,99615.09
2023-01-11T09:55:58.078Z,99624.34
2023-01-11T09:59:06.523Z,99618.81
2023-01-11T10:01:49.405Z,99608.94
2023-01-11T10:04:38.930Z,99611.22
2023-01-11T10:07:42.895Z,99618.19
2023-01-11T10:18:32.990Z,99624.19
2023-01-11T10:18:40.603Z,99619.06
2023-01-11T10:20:12.792Z,99611.88
2023-01-11T10:22:46.937Z,99603.88
2023-01-11T10:25:26.475Z,99607.97
2023-01-11T10:28:05.881Z,99618.63
2023-01-11T10:30:59.084Z,99602.63
2023-01-11T10:34:12.167Z,99611.66
2023-01-11T10:37:09.399Z,99613.50
2023-01-11T10:40:06.664Z,99610.03
2023-01-11T10:43:17.861Z,99609.19
2023-01-11T10:46:12.392Z,99599.72
2023-01-11T10:48:43.375Z,99603.41
2023-01-11T10:51:27.141Z,99607.31
2023-01-11T10:54:16.068Z,99609.31
2023-01-11T10:57:39.806Z,99613.03
2023-01-11T11:00:51.414Z,99614.03
2023-01-11T11:03:37.233Z,99600.09
2023-01-11T11:06:41.607Z,99608.09
2023-01-11T11:09:51.037Z,99616.47
2023-01-11T11:12:36.052Z,99602.31
2023-01-11T11:15:13.968Z,99603.31
2023-01-11T11:17:46.848Z,99599.84
2023-01-11T11:20:24.638Z,99593.88
2023-01-11T11:22:54.002Z,99599.22
2023-01-11T11:25:42.601Z,99604.72
2023-01-11T11:28:33.776Z,99606.56
2023-01-11T11:31:05.579Z,99604.91
2023-01-11T11:33:37.592Z,99615.59
2023-01-11T11:36:09.529Z,99609.44
2023-01-11T11:38:40.666Z,99606.97
2023-01-11T11:41:13.272Z,99603.28
2023-01-11T11:43:43.984Z,99593.63
2023-01-11T11:46:18.760Z,99605.53
2023-01-11T11:49:13.313Z,99620.50
2023-01-11T11:51:42.583Z,99614.50
2023-01-11T11:54:27.064Z,99603.69
2023-01-11T11:56:56.013Z,99605.31
2023-01-11T11:59:28.409Z,99604.50
2023-01-11T12:02:03.398Z,99605.13
2023-01-11T12:04:48.646Z,99604.09
2023-01-11T12:07:22.858Z,99599.22
2023-01-11T12:10:18.095Z,99601.69
2023-01-11T12:13:02.490Z,99599.00
2023-01-11T12:15:34.737Z,99597.16
2023-01-11T12:18:33.210Z,99600.03
2023-01-11T12:21:32.962Z,99602.72
2023-01-11T12:24:17.204Z,99589.56
2023-01-11T12:26:57.020Z,99586.91
2023-01-11T12:30:05.025Z,99580.09
2023-01-11T12:32:40.653Z,99574.97
2023-01-11T12:35:37.383Z,99568.19
2023-01-11T12:38:30.034Z,99572.06
2023-01-11T12:41:19.271Z,99565.09
2023-01-11T12:44:02.209Z,99559.31
2023-01-11T12:47:21.945Z,99564.00
2023-01-11T12:50:27.922Z,99569.53
2023-01-11T12:53:15.707Z,99573.22
2023-01-11T12:56:20.716Z,99567.91
2023-01-11T12:59:07.268Z,99580.56
2023-01-11T13:01:50.059Z,99583.66
2023-01-11T13:04:52.315Z,99592.66
2023-01-11T13:07:51.271Z,99598.19
2023-01-11T13:10:49.970Z,99609.66
2023-01-11T13:13:48.811Z,99610.84
2023-01-11T13:16:28.608Z,99605.53
2023-01-11T13:19:13.832Z,99611.69
2023-01-11T13:21:53.209Z,99607.19
2023-01-11T13:24:32.789Z,99612.34
2023-01-11T13:27:07.305Z,99618.50
2023-01-11T13:29:39.207Z,99628.94
2023-01-11T13:32:14.244Z,99626.28
2023-01-11T13:35:13.941Z,99628.75
2023-01-11T13:38:00.685Z,99617.28
2023-01-11T13:40:35.697Z,99617.06
2023-01-11T13:43:22.446Z,99617.72
2023-01-11T13:46:03.524Z,99628.19
2023-01-11T13:48:42.937Z,99629.00
2023-01-11T13:51:22.661Z,99624.50
2023-01-11T13:54:01.917Z,99629.63
2023-01-11T13:56:38.252Z,99626.78
2023-01-11T13:59:40.774Z,99643.41
2023-01-11T14:02:42.061Z,99652.03
2023-01-11T14:05:19.806Z,99655.31
2023-01-11T14:08:36.433Z,99652.50
2023-01-11T14:11:20.391Z,99660.09
2023-01-11T14:14:17.876Z,99658.25
2023-01-11T14:16:53.919Z,99661.56
2023-01-11T14:19:52.982Z,99664.84
2023-01-11T14:22:57.480Z,99677.16
2023-01-11T14:25:49.213Z,99680.44
2023-01-11T14:29:08.871Z,99676.97
2023-01-11T14:31:35.756Z,99680.44
2023-01-11T14:34:20.316Z,99685.78
2023-01-11T14:37:26.276Z,99691.13
2023-01-11T14:40:05.241Z,99684.13
2023-01-11T14:42:49.896Z,99694.81
2023-01-11T14:46:17.731Z,99704.66
2023-01-11T14:49:13.724Z,99709.16
2023-01-11T14:51:43.512Z,99705.88
2023-01-11T14:54:16.527Z,99706.88
2023-01-11T14:56:43.354Z,99715.88
2023-01-11T14:59:27.233Z,99722.22
2023-01-11T15:02:03.041Z,99722.63
2023-01-11T15:04:54.648Z,99737.59
2023-01-11T15:07:29.381Z,99741.28
2023-01-11T15:09:59.371Z,99750.31
2023-01-11T15:12:40.278Z,99751.50
2023-01-11T15:15:13.219Z,99743.06
2023-01-11T15:17:59.557Z,99753.72
2023-01-11T15:20:28.277Z,99762.91
2023-01-11T15:23:05.587Z,99766.78
2023-01-11T15:25:35.071Z,99765.34
2023-01-11T15:28:38.482Z,99763.84
2023-01-11T15:31:06.157Z,99768.56
2023-01-11T15:33:48.700Z,99766.91
2023-01-11T15:36:15.662Z,99764.59
2023-01-11T15:39:03.220Z,99767.47
2023-01-11T15:42:06.491Z,99775.66
2023-01-11T15:45:23.469Z,99779.50
2023-01-11T15:48:11.870Z,99792.00
2023-01-11T15:50:57.023Z,99795.06
2023-01-11T15:54:01.210Z,99798.94
2023-01-11T15:57:11.633Z,99812.41
2023-01-11T16:00:04.230Z,99821.44
2023-01-11T16:02:59.013Z,99827.78
2023-01-11T16:05:30.799Z,99826.31
2023-01-11T16:08:21.377Z,99844.16
2023-01-11T16:11:02.820Z,99838.97
2023-01-11T16:14:00.821Z,99854.34
2023-01-11T16:16:32.234Z,99867.84
2023-01-11T16:19:21.552Z,99874.19
2023-01-11T16:21:52.253Z,99877.84
2023-01-11T16:24:23.897Z,99880.69
2023-01-11T16:26:58.698Z,99900.34
2023-01-11T16:29:37.066Z,99911.00
2023-01-11T16:32:07.017Z,99912.84
2023-01-11T16:34:50.088Z,99908.53
2023-01-11T16:37:44.604Z,99914.22
2023-01-11T16:40:14.444Z,99916.25
2023-01-11T16:43:05.533Z,99928.91
2023-01-11T16:45:44.539Z,99921.13
2023-01-11T16:48:23.344Z,99923.31
2023-01-11T16:51:05.580Z,99933.47
2023-01-11T16:53:39.287Z,99935.06
2023-01-11T16:56:24.575Z,99937.22
2023-01-11T16:59:13.386Z,99938.44
2023-01-11T17:02:00.099Z,99950.44
2023-01-11T17:04:33.861Z,99948.16
2023-01-11T17:07:27.519Z,99945.81
2023-01-11T17:10:15.008Z,99952.34
2023-01-11T17:12:46.853Z,99949.22
2023-01-11T17:16:02.352Z,99968.03
2023-01-11T17:18:29.824Z,99965.88
2023-01-11T17:20:56.924Z,99978.56
2023-01-11T17:23:23.995Z,99973.59
2023-01-11T17:25:57.249Z,99975.59
2023-01-11T17:28:25.937Z,99982.94
2023-01-11T17:30:54.256Z,99990.28
2023-01-11T17:33:33.495Z,99987.94
2023-01-11T17:36:01.589Z,99985.66
2023-01-11T17:38:30.141Z,99991.31
2023-01-11T17:40:58.664Z,99992.69
2023-01-11T17:43:47.105Z,99994.66
2023-01-11T17:46:26.311Z,100009.97
2023-01-11T17:48:59.708Z,100019.97
2023-01-11T17:51:40.784Z,100025.47
2023-01-11T17:54:20.533Z,100024.97
2023-01-11T17:56:58.103Z,100030.28
2023-01-11T17:59:28.890Z,100030.47
2023-01-11T18:02:04.358Z,100026.97
2023-01-11T18:04:32.071Z,100034.28
2023-01-11T18:07:18.332Z,100026.50
2023-01-11T18:09:57.244Z,100041.63
2023-01-11T18:12:31.748Z,100045.66
2023-01-11T18:15:02.034Z,100052.13
2023-01-11T18:17:42.125Z,100070.91
2023-01-11T18:20:15.272Z,100060.59
2023-01-11T18:23:23.180Z,100062.63
2023-01-11T18:25:50.321Z,100065.63
2023-01-11T18:28:28.207Z,100071.28
2023-01-11T18:31:00.045Z,100074.28
2023-01-11T18:33:32.130Z,100079.28
2023-01-11T18:36:03.694Z,100084.97
2023-01-11T18:38:36.008Z,100093.25
2023-01-11T18:41:27.756Z,100097.28
2023-01-11T18:43:55.416Z,100097.59
2023-01-11T18:46:22.497Z,100091.81
2023-01-11T18:48:49.563Z,100099.94
2023-01-11T18:51:45.151Z,100106.59
2023-01-11T18:54:17.254Z,100112.91
2023-01-11T18:56:44.379Z,100112.41
2023-01-11T18:59:11.375Z,100111.91
2023-01-11T19:01:52.661Z,100122.72
2023-01-11T19:04:25.672Z,100122.22
2023-01-11T19:06:52.641Z,100130.34
2023-01-11T19:09:19.581Z,100129.69
2023-01-11T19:11:46.665Z,100123.06
2023-01-11T19:14:13.814Z,100125.22
2023-01-11T19:16:40.745Z,100122.91
2023-01-11T19:19:07.680Z,100123.22
2023-01-11T19:21:34.703Z,100130.53
2023-01-11T19:24:02.094Z,100133.50
2023-01-11T19:26:29.291Z,100145.47
2023-01-11T19:28:56.349Z,100139.66
2023-01-11T19:31:23.378Z,100145.13
2023-01-11T19:33:50.326Z,100133.84
2023-01-11T19:36:17.293Z,100138.66
2023-01-11T19:38:44.271Z,100142.47
2023-01-11T19:41:12.090Z,100136.47
2023-01-11T19:43:44.785Z,100133.16
2023-01-11T19:46:22.472Z,100128.19
2023-01-11T19:48:57.397Z,100140.78
2023-01-11T19:51:24.307Z,100130.50
2023-01-11T19:53:51.586Z,100128.16
2023-01-11T19:56:18.566Z,100130.16
2023-01-11T19:58:45.527Z,100135.47
2023-01-11T20:01:13.264Z,100134.81
2023-01-11T20:03:41.529Z,100132.31
2023-01-11T20:06:09.160Z,100137.47
2023-01-11T20:08:38.415Z,100132.31
2023-01-11T20:11:14.100Z,100128.84
2023-01-11T20:13:42.195Z,100124.34
2023-01-11T20:16:13.935Z,100120.88
2023-01-11T20:18:42.699Z,100129.81
2023-01-11T20:21:10.877Z,100142.13
2023-01-11T20:23:38.824Z,100140.44
2023-01-11T20:26:14.808Z,100147.56
2023-01-11T20:28:54.377Z,100144.91
2023-01-11T20:31:27.246Z,100147.72
2023-01-11T20:33:55.564Z,100153.03
2023-01-11T20:36:23.598Z,100149.72
2023-01-11T20:38:51.180Z,100154.22
2023-01-11T20:41:40.182Z,100155.22
2023-01-11T20:44:08.067Z,100153.69
2023-01-11T20:46:37.119Z,100156.34
2023-01-11T20:49:06.068Z,100161.00
2023-01-11T20:51:33.224Z,100162.81
2023-01-11T20:54:00.168Z,100159.47
2023-01-11T20:56:27.490Z,100169.25
2023-01-11T20:58:54.504Z,100149.03
2023-01-11T21:01:28.014Z,100147.38
2023-01-11T21:03:59.956Z,100151.03
2023-01-11T21:06:27.532Z,100149.38
2023-01-11T21:09:00.338Z,100143.22
2023-01-11T21:11:28.757Z,100137.09
2023-01-11T21:16:24.545Z,100135.44
2023-01-11T21:19:01.159Z,100117.00
2023-01-11T21:21:30.899Z,100119.81
2023-01-11T21:24:01.656Z,100122.47
2023-01-11T21:26:30.280Z,100111.19
2023-01-11T21:29:04.377Z,100115.69
2023-01-11T21:31:34.796Z,100113.03
2023-01-11T21:34:02.806Z,100113.16
2023-01-11T21:36:31.398Z,100113.16
2023-01-11T21:38:59.615Z,100106.38
2023-01-11T21:41:48.878Z,100112.66
2023-01-11T21:44:17.273Z,100120.81
2023-01-11T21:46:44.875Z,100124.44
2023-01-11T21:49:12.803Z,100117.44
2023-01-11T21:51:40.349Z,100128.22
2023-01-11T21:54:13.258Z,100117.78
2023-01-11T21:56:41.906Z,100121.44
2023-01-11T21:59:09.741Z,100118.09
2023-01-11T22:01:39.087Z,100134.00
2023-01-11T22:04:08.109Z,100120.91
2023-01-11T22:06:37.095Z,100130.69
2023-01-11T22:09:05.232Z,100128.06
2023-01-11T22:11:33.200Z,100131.53
2023-01-11T22:14:02.426Z,100124.56
2023-01-11T22:16:31.499Z,100135.19
2023-01-11T22:19:00.029Z,100139.66
2023-01-11T22:21:27.612Z,100148.44
2023-01-11T22:23:57.979Z,100151.25
2023-01-11T22:26:27.591Z,100142.47
2023-01-11T22:29:14.543Z,100150.44
2023-01-11T22:31:51.546Z,100146.94
2023-01-11T22:34:19.079Z,100140.00
2023-01-11T22:36:46.792Z,100144.44
2023-01-11T22:39:15.633Z,100141.78
2023-01-11T22:41:45.372Z,100138.31
2023-01-11T22:44:15.460Z,100143.59
2023-01-11T22:46:43.466Z,100144.59
2023-01-11T22:49:11.606Z,100148.25
2023-01-11T22:51:43.619Z,100143.94
2023-01-11T22:54:11.625Z,100150.91
2023-01-11T22:56:38.685Z,100150.91
2023-01-11T22:59:05.648Z,100158.03
2023-01-11T23:01:38.749Z,100150.91
2023-01-11T23:04:07.610Z,100147.25
2023-01-11T23:06:38.688Z,100132.34
2023-01-11T23:09:07.725Z,100128.69
2023-01-11T23:11:57.008Z,100128.53
2023-01-11T23:14:30.859Z,100134.69
2023-01-11T23:17:08.032Z,100134.69
2023-01-11T23:19:37.805Z,100141.66
2023-01-11T23:22:05.532Z,100143.31
2023-01-11T23:24:32.901Z,100142.31
2023-01-11T23:26:59.995Z,100136.16
2023-01-11T23:29:27.106Z,100140.47
2023-01-11T23:31:54.134Z,100142.31
2023-01-11T23:34:21.451Z,100146.63
2023-01-11T23:36:48.425Z,100143.97
2023-01-11T23:39:18.560Z,100145.63
2023-01-11T23:42:04.392Z,100143.78
2023-01-11T23:44:31.456Z,100145.31
2023-01-11T23:47:16.956Z,100142.66
2023-01-11T23:49:44.035Z,100137.03
2023-01-11T23:52:11.528Z,100130.72
2023-01-11T23:54:38.538Z,100114.66
2023-01-11T23:57:05.619Z,100118.81
2023-01-11T23:59:32.974Z,100106.38
